Time;durP1;ratioP1;P1;durP2;ratioP2;P2;SDS_P1;SDS_P2;PMS_P1;PMS_P2;Temp;Humidity;BMP_temperature;BMP_pressure;BME280_temperature;BME280_humidity;BME280_pressure;Samples;Min_cycle;Max_cycle;Signal;HPM_P1;HPM_P2
2023/08/08 00:01:09;;;;;;;10.75;6.15;;;;;;;;;;5006916;28;20201;-64
2023/08/08 00:03:36;;;;;;;8.93;5.88;;;;;;;;;;5011013;28;20042;-65
2023/08/08 00:06:02;;;;;;;11.48;7.47;;;;;;;;;;5007561;28;20034;-65
2023/08/08 00:08:29;;;;;;;11.98;6.95;;;;;;;;;;5008852;28;20297;-63
2023/08/08 00:10:56;;;;;;;11.80;6.63;;;;;;;;;;5033313;28;20086;-63
2023/08/08 00:13:23;;;;;;;10.93;6.40;;;;;;;;;;5038880;28;20044;-65
2023/08/08 00:15:49;;;;;;;10.38;6.78;;;;;;;;;;5039618;28;20041;-63
2023/08/08 00:18:16;;;;;;;10.02;6.78;;;;;;;;;;5031340;28;20045;-64
2023/08/08 00:20:42;;;;;;;11.70;6.07;;;;;;;;;;5040277;28;20408;-64
2023/08/08 00:23:09;;;;;;;10.05;6.53;;;;;;;;;;5039932;28;20113;-64
2023/08/08 00:25:37;;;;;;;10.95;6.55;;;;;;;;;;5039557;28;20029;-66
2023/08/08 00:28:04;;;;;;;10.38;6.40;;;;;;;;;;5036693;28;20116;-63
2023/08/08 00:30:30;;;;;;;20.98;7.60;;;;;;;;;;5038724;28;20037;-62
2023/08/08 00:32:57;;;;;;;13.68;7.07;;;;;;;;;;5038910;28;20067;-63
2023/08/08 00:35:24;;;;;;;12.00;6.80;;;;;;;;;;5038524;28;20052;-66
2023/08/08 00:37:50;;;;;;;12.35;6.40;;;;;;;;;;5039152;28;20033;-61
2023/08/08 00:40:17;;;;;;;10.25;6.50;;;;;;;;;;5039826;28;20045;-65
2023/08/08 00:42:43;;;;;;;11.15;6.43;;;;;;;;;;5038824;28;20461;-64
2023/08/08 00:45:10;;;;;;;10.45;6.00;;;;;;;;;;5038594;28;20039;-65
2023/08/08 00:47:37;;;;;;;10.85;6.75;;;;;;;;;;5039504;28;20516;-65
2023/08/08 00:50:05;;;;;;;25.92;7.30;;;;;;;;;;5038902;28;20045;-63
2023/08/08 00:52:31;;;;;;;11.52;6.85;;;;;;;;;;5039490;28;20049;-63
2023/08/08 00:54:59;;;;;;;10.75;6.32;;;;;;;;;;5037269;28;20520;-64
2023/08/08 00:57:25;;;;;;;12.63;7.03;;;;;;;;;;5027348;28;20038;-65
2023/08/08 00:59:52;;;;;;;13.00;6.90;;;;;;;;;;5037045;28;20072;-63
2023/08/08 01:02:18;;;;;;;13.02;6.78;;;;;;;;;;5037605;28;20040;-65
2023/08/08 01:04:45;;;;;;;11.68;6.82;;;;;;;;;;5033687;28;21499;-67
2023/08/08 01:07:16;;;;;;;10.82;6.28;;;;;;;;;;5036504;28;20451;-64
2023/08/08 01:09:55;;;;;;;10.98;6.15;;;;;;;;;;5036210;28;20087;-64
2023/08/08 01:12:23;;;;;;;9.60;5.53;;;;;;;;;;5053042;28;20060;-65
2023/08/08 01:14:51;;;;;;;12.07;7.53;;;;;;;;;;5042235;28;20029;-63
2023/08/08 01:17:18;;;;;;;18.10;7.18;;;;;;;;;;5037991;28;20501;-64
2023/08/08 01:19:45;;;;;;;12.68;6.30;;;;;;;;;;5037253;28;20535;-61
2023/08/08 01:22:16;;;;;;;12.88;7.03;;;;;;;;;;5053952;28;20037;-64
2023/08/08 01:24:44;;;;;;;12.75;6.55;;;;;;;;;;5035974;28;20091;-62
2023/08/08 01:27:11;;;;;;;11.68;6.20;;;;;;;;;;5038454;28;20071;-62
2023/08/08 01:29:39;;;;;;;10.88;6.15;;;;;;;;;;5040740;28;20041;-63
2023/08/08 01:32:05;;;;;;;8.95;5.80;;;;;;;;;;5042276;28;20087;-63
2023/08/08 01:34:32;;;;;;;11.60;6.03;;;;;;;;;;5041846;28;20029;-65
2023/08/08 01:37:03;;;;;;;14.73;6.82;;;;;;;;;;5042137;28;20033;-65
2023/08/08 01:39:31;;;;;;;10.73;6.68;;;;;;;;;;5040249;28;21053;-63
2023/08/08 01:41:59;;;;;;;11.23;6.72;;;;;;;;;;5039174;28;20041;-64
2023/08/08 01:44:28;;;;;;;13.98;7.78;;;;;;;;;;5054493;28;20043;-64
2023/08/08 01:46:54;;;;;;;9.95;5.65;;;;;;;;;;5037544;28;20043;-63
2023/08/08 01:49:21;;;;;;;12.32;6.28;;;;;;;;;;5038171;28;20052;-62
2023/08/08 01:51:48;;;;;;;10.98;6.07;;;;;;;;;;5029424;28;20109;-63
2023/08/08 01:54:15;;;;;;;14.77;6.65;;;;;;;;;;5039993;28;20041;-62
2023/08/08 01:56:41;;;;;;;14.85;6.70;;;;;;;;;;5034894;28;25073;-63
2023/08/08 01:59:08;;;;;;;11.10;6.18;;;;;;;;;;5031086;28;20029;-63
2023/08/08 02:01:34;;;;;;;12.63;6.50;;;;;;;;;;5030134;28;20457;-64
2023/08/08 02:04:01;;;;;;;11.18;6.03;;;;;;;;;;5030423;28;20045;-64
2023/08/08 02:06:30;;;;;;;20.17;7.07;;;;;;;;;;5028676;28;20045;-63
2023/08/08 02:08:57;;;;;;;11.57;6.22;;;;;;;;;;5030399;28;20068;-63
2023/08/08 02:11:24;;;;;;;9.38;6.15;;;;;;;;;;5032418;28;20096;-64
2023/08/08 02:13:50;;;;;;;11.57;5.95;;;;;;;;;;5013548;28;20106;-63
2023/08/08 02:16:17;;;;;;;10.05;6.20;;;;;;;;;;5012683;28;20076;-62
2023/08/08 02:18:43;;;;;;;16.40;6.20;;;;;;;;;;5010249;28;20415;-63
2023/08/08 02:21:10;;;;;;;12.40;6.95;;;;;;;;;;5025911;28;20128;-64
2023/08/08 02:23:37;;;;;;;13.23;6.75;;;;;;;;;;5024448;28;20044;-63
2023/08/08 02:26:04;;;;;;;12.23;6.35;;;;;;;;;;5010045;28;20033;-64
2023/08/08 02:28:30;;;;;;;14.60;6.75;;;;;;;;;;5011250;28;20030;-64
2023/08/08 02:30:57;;;;;;;11.05;6.00;;;;;;;;;;5025937;28;20167;-64
2023/08/08 02:33:24;;;;;;;15.32;6.95;;;;;;;;;;5024813;28;20106;-59
2023/08/08 02:35:51;;;;;;;10.80;6.32;;;;;;;;;;5009310;28;20041;-65
2023/08/08 02:38:17;;;;;;;11.18;6.32;;;;;;;;;;5008759;28;20128;-64
2023/08/08 02:40:44;;;;;;;11.43;6.72;;;;;;;;;;5008217;28;20045;-65
2023/08/08 02:43:10;;;;;;;16.00;7.07;;;;;;;;;;5010605;28;20101;-65
2023/08/08 02:45:38;;;;;;;13.68;7.13;;;;;;;;;;5025875;28;20104;-65
2023/08/08 02:48:06;;;;;;;12.75;7.50;;;;;;;;;;5009799;28;20520;-64
2023/08/08 02:50:32;;;;;;;11.57;6.82;;;;;;;;;;5024728;28;20687;-64
2023/08/08 02:52:59;;;;;;;18.88;6.75;;;;;;;;;;5009915;28;20073;-64
2023/08/08 02:55:26;;;;;;;13.20;7.18;;;;;;;;;;5009782;28;20030;-62
2023/08/08 02:57:53;;;;;;;12.00;7.55;;;;;;;;;;5028418;28;20409;-66
2023/08/08 03:00:19;;;;;;;15.35;6.90;;;;;;;;;;5039811;28;20052;-62
2023/08/08 03:02:46;;;;;;;15.88;7.93;;;;;;;;;;5015192;28;20128;-64
2023/08/08 03:05:13;;;;;;;12.68;7.38;;;;;;;;;;5029352;28;20049;-64
2023/08/08 03:07:40;;;;;;;16.00;8.20;;;;;;;;;;5012140;28;20184;-64
2023/08/08 03:10:06;;;;;;;12.77;7.47;;;;;;;;;;5029210;28;20608;-63
2023/08/08 03:12:33;;;;;;;14.13;7.10;;;;;;;;;;5014682;28;20059;-64
2023/08/08 03:15:00;;;;;;;15.35;8.32;;;;;;;;;;5025870;28;20104;-63
2023/08/08 03:17:26;;;;;;;13.45;7.25;;;;;;;;;;5028833;28;20559;-64
2023/08/08 03:19:53;;;;;;;14.40;8.27;;;;;;;;;;5023495;28;20113;-67
2023/08/08 03:22:19;;;;;;;13.10;8.05;;;;;;;;;;5031189;28;20087;-65
2023/08/08 03:24:46;;;;;;;13.82;7.78;;;;;;;;;;5024884;28;20123;-65
2023/08/08 03:27:13;;;;;;;16.92;8.43;;;;;;;;;;5025397;28;20946;-66
2023/08/08 03:29:39;;;;;;;16.65;9.70;;;;;;;;;;5009207;28;20514;-63
2023/08/08 03:32:27;;;;;;;19.45;9.27;;;;;;;;;;5012613;28;20061;-63
2023/08/08 03:34:54;;;;;;;13.70;8.60;;;;;;;;;;5013456;28;21067;-64
2023/08/08 03:37:21;;;;;;;15.68;9.57;;;;;;;;;;5022053;28;20124;-64
2023/08/08 03:39:47;;;;;;;17.30;8.35;;;;;;;;;;5019445;28;20095;-65
2023/08/08 03:42:14;;;;;;;18.42;10.10;;;;;;;;;;5020671;28;20069;-66
2023/08/08 03:44:41;;;;;;;15.52;8.32;;;;;;;;;;5020555;28;20042;-67
2023/08/08 03:47:07;;;;;;;20.75;11.02;;;;;;;;;;5019984;28;20041;-65
2023/08/08 03:49:34;;;;;;;20.23;10.52;;;;;;;;;;5020077;28;20041;-67
2023/08/08 03:52:01;;;;;;;15.50;9.20;;;;;;;;;;5020391;28;20064;-66
2023/08/08 03:54:27;;;;;;;16.38;8.90;;;;;;;;;;5006874;28;20033;-65
2023/08/08 03:56:54;;;;;;;17.35;9.57;;;;;;;;;;5019523;28;20032;-66
2023/08/08 03:59:21;;;;;;;19.40;10.27;;;;;;;;;;5021567;28;20043;-66
2023/08/08 04:01:47;;;;;;;20.35;9.13;;;;;;;;;;5000114;28;20486;-66
2023/08/08 04:04:14;;;;;;;19.48;9.88;;;;;;;;;;4999895;28;20096;-64
2023/08/08 04:06:40;;;;;;;17.00;8.48;;;;;;;;;;5002007;28;20147;-66
2023/08/08 04:09:07;;;;;;;14.23;7.78;;;;;;;;;;5002262;28;20124;-66
2023/08/08 04:11:35;;;;;;;18.73;10.45;;;;;;;;;;4988625;28;20057;-64
2023/08/08 04:14:02;;;;;;;16.92;9.80;;;;;;;;;;5010068;28;20053;-66
2023/08/08 04:16:29;;;;;;;18.20;10.73;;;;;;;;;;5011360;28;20046;-66
2023/08/08 04:18:55;;;;;;;18.45;10.02;;;;;;;;;;5010092;28;20033;-66
2023/08/08 04:21:23;;;;;;;15.93;9.73;;;;;;;;;;5024206;28;20037;-69
2023/08/08 04:23:50;;;;;;;19.20;10.88;;;;;;;;;;5010418;28;21042;-66
2023/08/08 04:26:16;;;;;;;24.25;11.00;;;;;;;;;;5009825;28;20041;-66
2023/08/08 04:28:43;;;;;;;23.17;12.77;;;;;;;;;;5008049;28;20049;-66
2023/08/08 04:31:09;;;;;;;20.52;12.27;;;;;;;;;;5009126;28;20073;-65
2023/08/08 04:33:36;;;;;;;23.15;12.43;;;;;;;;;;5025030;28;20037;-64
2023/08/08 04:36:03;;;;;;;22.27;12.52;;;;;;;;;;5009833;28;20494;-65
2023/08/08 04:38:29;;;;;;;19.80;11.35;;;;;;;;;;5008406;28;20133;-66
2023/08/08 04:40:56;;;;;;;23.30;11.75;;;;;;;;;;5023624;28;20496;-65
2023/08/08 04:43:23;;;;;;;21.75;11.88;;;;;;;;;;5006838;28;20046;-65
2023/08/08 04:45:49;;;;;;;20.05;11.15;;;;;;;;;;5008574;28;20037;-66
2023/08/08 04:48:16;;;;;;;21.23;11.80;;;;;;;;;;5023410;28;20056;-65
2023/08/08 04:50:43;;;;;;;24.85;11.93;;;;;;;;;;5008830;28;20041;-66
2023/08/08 04:53:09;;;;;;;22.67;11.80;;;;;;;;;;5024383;28;20083;-67
2023/08/08 04:55:36;;;;;;;24.80;12.32;;;;;;;;;;5007021;28;20033;-67
2023/08/08 04:58:03;;;;;;;21.10;12.35;;;;;;;;;;5009227;28;20038;-67
2023/08/08 05:00:29;;;;;;;20.02;11.30;;;;;;;;;;5021852;28;20048;-67
2023/08/08 05:02:56;;;;;;;23.02;12.57;;;;;;;;;;5008482;28;22285;-66
2023/08/08 05:05:23;;;;;;;21.58;11.65;;;;;;;;;;5008122;28;20044;-68
2023/08/08 05:07:49;;;;;;;20.83;11.88;;;;;;;;;;5004867;28;20041;-67
2023/08/08 05:10:16;;;;;;;19.90;12.13;;;;;;;;;;5004166;28;20509;-67
2023/08/08 05:12:43;;;;;;;19.92;11.88;;;;;;;;;;5006622;28;20049;-67
2023/08/08 05:15:10;;;;;;;21.10;12.18;;;;;;;;;;5045373;28;20040;-67
2023/08/08 05:17:37;;;;;;;18.23;11.85;;;;;;;;;;5062201;28;20154;-66
2023/08/08 05:20:04;;;;;;;20.17;10.82;;;;;;;;;;5066516;28;20047;-67
2023/08/08 05:22:30;;;;;;;20.17;11.25;;;;;;;;;;5064596;28;20505;-66
2023/08/08 05:24:57;;;;;;;23.00;11.35;;;;;;;;;;5064094;28;20031;-67
2023/08/08 05:27:23;;;;;;;18.60;10.98;;;;;;;;;;5053939;28;20057;-65
2023/08/08 05:29:50;;;;;;;19.10;10.65;;;;;;;;;;5065960;28;20497;-64
2023/08/08 05:32:17;;;;;;;17.95;10.85;;;;;;;;;;5063961;28;20040;-65
2023/08/08 05:34:43;;;;;;;17.75;10.02;;;;;;;;;;5063588;28;20043;-66
2023/08/08 05:37:10;;;;;;;19.17;9.90;;;;;;;;;;5063599;28;20036;-68
2023/08/08 05:39:36;;;;;;;20.60;9.85;;;;;;;;;;5073444;28;20051;-66
2023/08/08 05:42:03;;;;;;;20.30;10.38;;;;;;;;;;5072741;28;21794;-67
2023/08/08 05:44:30;;;;;;;17.73;9.68;;;;;;;;;;5050254;28;20093;-67
2023/08/08 05:46:56;;;;;;;16.85;9.63;;;;;;;;;;5072358;28;20036;-66
2023/08/08 05:49:24;;;;;;;18.17;10.32;;;;;;;;;;5072463;28;20447;-68
2023/08/08 05:51:55;;;;;;;16.55;10.07;;;;;;;;;;5067967;28;20059;-67
2023/08/08 05:54:22;;;;;;;17.55;9.82;;;;;;;;;;5035039;28;20052;-70
2023/08/08 05:56:49;;;;;;;14.43;8.73;;;;;;;;;;5052563;28;20520;-68
2023/08/08 05:59:15;;;;;;;17.58;10.60;;;;;;;;;;5039992;28;20059;-67
2023/08/08 06:01:42;;;;;;;16.42;9.90;;;;;;;;;;5036246;28;20116;-66
2023/08/08 06:04:28;;;;;;;19.50;9.73;;;;;;;;;;5051484;28;20040;-67
2023/08/08 06:06:55;;;;;;;16.98;9.75;;;;;;;;;;5022990;28;20040;-66
2023/08/08 06:09:22;;;;;;;16.83;10.20;;;;;;;;;;5024203;28;20068;-67
2023/08/08 06:11:48;;;;;;;15.23;9.35;;;;;;;;;;5017958;28;20053;-66
2023/08/08 06:14:16;;;;;;;15.77;9.05;;;;;;;;;;5001705;28;20047;-66
2023/08/08 06:16:43;;;;;;;16.38;9.35;;;;;;;;;;5000774;28;20045;-65
2023/08/08 06:19:10;;;;;;;13.90;9.00;;;;;;;;;;5001406;28;20042;-66
2023/08/08 06:21:36;;;;;;;16.65;9.70;;;;;;;;;;5001373;28;20807;-66
2023/08/08 06:24:03;;;;;;;15.98;10.05;;;;;;;;;;5001835;28;20045;-65
2023/08/08 06:26:30;;;;;;;17.45;10.60;;;;;;;;;;5001675;28;20041;-69
2023/08/08 06:28:56;;;;;;;16.52;9.90;;;;;;;;;;5002169;28;20084;-66
2023/08/08 06:31:23;;;;;;;15.32;9.30;;;;;;;;;;4996726;28;20458;-66
2023/08/08 06:33:50;;;;;;;17.85;10.75;;;;;;;;;;5003736;28;20068;-66
2023/08/08 06:36:16;;;;;;;18.30;10.73;;;;;;;;;;5007956;28;20041;-65
2023/08/08 06:38:43;;;;;;;15.65;9.45;;;;;;;;;;5018279;28;20762;-66
2023/08/08 06:41:09;;;;;;;18.17;10.57;;;;;;;;;;5038994;28;20041;-66
2023/08/08 06:43:36;;;;;;;18.48;10.27;;;;;;;;;;5026454;28;20041;-67
2023/08/08 06:46:03;;;;;;;17.05;9.98;;;;;;;;;;5018562;28;20141;-66
2023/08/08 06:48:29;;;;;;;16.67;10.25;;;;;;;;;;5033918;28;20029;-65
2023/08/08 06:50:57;;;;;;;17.35;10.13;;;;;;;;;;5033806;28;20084;-66
2023/08/08 06:53:24;;;;;;;15.75;9.80;;;;;;;;;;5018988;28;20037;-65
2023/08/08 06:55:51;;;;;;;19.67;10.95;;;;;;;;;;5019697;28;20076;-66
2023/08/08 06:58:18;;;;;;;16.70;10.85;;;;;;;;;;5023329;28;20098;-66
2023/08/08 07:00:45;;;;;;;16.98;10.63;;;;;;;;;;5001087;28;20759;-67
2023/08/08 07:03:11;;;;;;;17.30;10.77;;;;;;;;;;5033204;28;20168;-66
2023/08/08 07:05:39;;;;;;;21.65;12.27;;;;;;;;;;5019054;28;20045;-65
2023/08/08 07:08:06;;;;;;;17.25;10.75;;;;;;;;;;5018677;28;20071;-66
2023/08/08 07:10:32;;;;;;;20.58;11.13;;;;;;;;;;5034317;28;20703;-65
2023/08/08 07:12:59;;;;;;;21.23;11.10;;;;;;;;;;5018505;28;20056;-66
2023/08/08 07:15:26;;;;;;;18.98;10.85;;;;;;;;;;5016806;28;20033;-66
2023/08/08 07:17:52;;;;;;;18.20;10.68;;;;;;;;;;5017954;28;20922;-66
2023/08/08 07:20:19;;;;;;;18.63;11.75;;;;;;;;;;5035057;28;20041;-66
2023/08/08 07:22:46;;;;;;;17.20;10.50;;;;;;;;;;5019989;28;20049;-66
2023/08/08 07:25:12;;;;;;;19.08;11.43;;;;;;;;;;5017756;28;20447;-66
2023/08/08 07:27:39;;;;;;;17.55;11.10;;;;;;;;;;5016495;28;20034;-67
2023/08/08 07:30:06;;;;;;;16.83;10.25;;;;;;;;;;5020725;28;20378;-68
2023/08/08 07:32:34;;;;;;;19.23;11.27;;;;;;;;;;5020898;28;20352;-65
2023/08/08 07:35:05;;;;;;;17.83;10.60;;;;;;;;;;5020797;28;20033;-66
2023/08/08 07:37:33;;;;;;;15.93;10.77;;;;;;;;;;5017878;28;20049;-66
2023/08/08 07:40:00;;;;;;;17.40;10.27;;;;;;;;;;5019743;28;20037;-66
2023/08/08 07:42:27;;;;;;;17.50;11.70;;;;;;;;;;5018249;28;20033;-65
2023/08/08 07:44:53;;;;;;;19.77;11.60;;;;;;;;;;5020057;28;20041;-66
2023/08/08 07:47:20;;;;;;;18.80;11.75;;;;;;;;;;5020700;28;20091;-66
2023/08/08 07:49:46;;;;;;;15.88;10.80;;;;;;;;;;5019631;28;21777;-65
2023/08/08 07:52:13;;;;;;;17.02;10.13;;;;;;;;;;5032636;28;20123;-66
2023/08/08 07:54:40;;;;;;;17.35;10.63;;;;;;;;;;5017160;28;20162;-66
2023/08/08 07:57:06;;;;;;;18.48;10.93;;;;;;;;;;5018119;28;20050;-65
2023/08/08 07:59:33;;;;;;;16.58;9.88;;;;;;;;;;5019203;28;20091;-67
2023/08/08 08:02:00;;;;;;;15.75;10.18;;;;;;;;;;5019551;28;20132;-67
2023/08/08 08:04:26;;;;;;;18.45;11.07;;;;;;;;;;5018895;28;20042;-66
2023/08/08 08:06:53;;;;;;;17.38;10.82;;;;;;;;;;5017570;28;20103;-67
2023/08/08 08:09:19;;;;;;;16.90;10.48;;;;;;;;;;5018124;28;20533;-68
2023/08/08 08:11:46;;;;;;;18.40;10.40;;;;;;;;;;5016297;28;20049;-66
2023/08/08 08:14:12;;;;;;;18.33;10.68;;;;;;;;;;5033089;28;20049;-66
2023/08/08 08:16:39;;;;;;;16.85;10.43;;;;;;;;;;5016518;28;20049;-66
2023/08/08 08:19:06;;;;;;;14.90;10.20;;;;;;;;;;5016148;28;20408;-66
2023/08/08 08:21:32;;;;;;;16.10;10.77;;;;;;;;;;5015094;28;20040;-66
2023/08/08 08:23:59;;;;;;;18.25;10.93;;;;;;;;;;5017565;28;20025;-66
2023/08/08 08:26:26;;;;;;;17.88;11.25;;;;;;;;;;5032756;28;20924;-67
2023/08/08 08:28:52;;;;;;;17.80;10.43;;;;;;;;;;5019467;28;20076;-67
2023/08/08 08:31:19;;;;;;;21.20;12.02;;;;;;;;;;5016451;28;20049;-67
2023/08/08 08:33:46;;;;;;;16.52;10.82;;;;;;;;;;5010981;28;20619;-66
2023/08/08 08:36:12;;;;;;;19.33;11.60;;;;;;;;;;5016191;28;20148;-67
2023/08/08 08:38:39;;;;;;;15.95;10.73;;;;;;;;;;5017485;28;20044;-68
2023/08/08 08:41:06;;;;;;;18.48;11.45;;;;;;;;;;5034160;28;20060;-67
2023/08/08 08:43:32;;;;;;;17.90;11.50;;;;;;;;;;5017228;28;20152;-66
2023/08/08 08:46:02;;;;;;;22.35;11.55;;;;;;;;;;5019163;28;20045;-66
2023/08/08 08:48:28;;;;;;;18.65;11.80;;;;;;;;;;5017668;28;20037;-67
2023/08/08 08:50:55;;;;;;;18.23;11.95;;;;;;;;;;5018519;28;20037;-65
2023/08/08 08:53:22;;;;;;;20.75;12.35;;;;;;;;;;5017844;28;20064;-64
2023/08/08 08:55:49;;;;;;;19.30;11.88;;;;;;;;;;5016691;28;20037;-65
2023/08/08 08:58:18;;;;;;;17.17;11.20;;;;;;;;;;5016401;28;20039;-65
2023/08/08 09:00:45;;;;;;;18.85;11.05;;;;;;;;;;5016920;28;20049;-64
2023/08/08 09:03:12;;;;;;;18.75;11.30;;;;;;;;;;5017697;28;20042;-66
2023/08/08 09:05:41;;;;;;;20.40;12.10;;;;;;;;;;5014220;28;20044;-65
2023/08/08 09:08:08;;;;;;;19.90;12.05;;;;;;;;;;5020957;28;20592;-66
2023/08/08 09:10:35;;;;;;;18.58;12.13;;;;;;;;;;5035139;28;20116;-67
2023/08/08 09:13:02;;;;;;;22.23;11.70;;;;;;;;;;5036229;28;20056;-66
2023/08/08 09:15:32;;;;;;;27.70;13.13;;;;;;;;;;5036619;28;20037;-66
2023/08/08 09:17:59;;;;;;;19.95;13.30;;;;;;;;;;5035590;28;20044;-66
2023/08/08 09:20:28;;;;;;;22.33;13.20;;;;;;;;;;5035743;28;20390;-66
2023/08/08 09:22:54;;;;;;;23.85;13.60;;;;;;;;;;5038521;28;20098;-65
2023/08/08 09:25:21;;;;;;;20.23;11.75;;;;;;;;;;5034699;28;20036;-64
2023/08/08 09:27:48;;;;;;;20.42;12.27;;;;;;;;;;5035443;28;20431;-65
2023/08/08 09:30:15;;;;;;;18.55;11.90;;;;;;;;;;5036654;28;20386;-64
2023/08/08 09:32:45;;;;;;;21.17;12.82;;;;;;;;;;5036303;28;20064;-66
2023/08/08 09:35:11;;;;;;;21.60;12.95;;;;;;;;;;5036855;28;20156;-65
2023/08/08 09:37:39;;;;;;;26.15;13.90;;;;;;;;;;5034269;28;20029;-65
2023/08/08 09:40:07;;;;;;;23.08;13.27;;;;;;;;;;5035016;28;20494;-65
2023/08/08 09:42:34;;;;;;;20.10;12.82;;;;;;;;;;5035018;28;20040;-65
2023/08/08 09:45:01;;;;;;;21.48;13.82;;;;;;;;;;5033612;28;20036;-65
2023/08/08 09:47:49;;;;;;;21.23;13.80;;;;;;;;;;5023494;28;20055;-65
2023/08/08 09:50:16;;;;;;;24.00;13.18;;;;;;;;;;5034069;28;20091;-65
2023/08/08 09:52:43;;;;;;;27.27;14.10;;;;;;;;;;5034081;28;20049;-65
2023/08/08 09:55:12;;;;;;;23.83;14.77;;;;;;;;;;5034432;28;20036;-65
2023/08/08 09:57:42;;;;;;;23.35;14.88;;;;;;;;;;5034223;28;21961;-67
2023/08/08 10:00:28;;;;;;;21.83;15.07;;;;;;;;;;5031319;28;20041;-66
2023/08/08 10:02:55;;;;;;;23.38;14.63;;;;;;;;;;5012689;28;20132;-65
2023/08/08 10:05:22;;;;;;;24.42;15.38;;;;;;;;;;5022242;28;20045;-66
2023/08/08 10:07:48;;;;;;;26.42;15.48;;;;;;;;;;5033008;28;20045;-66
2023/08/08 10:10:15;;;;;;;26.85;16.55;;;;;;;;;;5037434;28;20783;-66
2023/08/08 10:12:42;;;;;;;24.23;15.38;;;;;;;;;;5035539;28;20539;-66
2023/08/08 10:15:10;;;;;;;26.17;15.80;;;;;;;;;;5037122;28;20488;-66
2023/08/08 10:17:38;;;;;;;23.75;15.15;;;;;;;;;;5035350;28;20045;-66
2023/08/08 10:20:17;;;;;;;23.58;14.80;;;;;;;;;;5039302;28;20065;-66
2023/08/08 10:22:45;;;;;;;25.05;15.48;;;;;;;;;;5039073;28;20443;-66
2023/08/08 10:25:19;;;;;;;21.88;14.75;;;;;;;;;;5039634;28;20037;-65
2023/08/08 10:27:46;;;;;;;23.60;14.57;;;;;;;;;;5039214;28;21757;-65
2023/08/08 10:30:14;;;;;;;23.75;15.32;;;;;;;;;;5040269;28;20040;-64
2023/08/08 10:32:41;;;;;;;23.70;15.43;;;;;;;;;;5039742;28;20041;-65
2023/08/08 10:35:09;;;;;;;23.75;15.70;;;;;;;;;;5040904;28;21841;-68
2023/08/08 10:37:36;;;;;;;27.05;16.27;;;;;;;;;;5039657;28;20128;-64
2023/08/08 10:40:06;;;;;;;24.80;15.77;;;;;;;;;;5041726;28;20041;-65
2023/08/08 10:42:42;;;;;;;23.85;15.55;;;;;;;;;;5025538;28;20541;-65
2023/08/08 10:45:11;;;;;;;23.38;15.70;;;;;;;;;;5018915;28;20045;-65
2023/08/08 10:47:38;;;;;;;24.10;16.13;;;;;;;;;;5020175;28;20512;-66
2023/08/08 10:50:11;;;;;;;24.20;16.30;;;;;;;;;;5020854;28;20042;-66
2023/08/08 10:52:52;;;;;;;29.98;16.77;;;;;;;;;;5020381;28;20045;-66
2023/08/08 10:55:32;;;;;;;23.77;16.00;;;;;;;;;;5020194;28;20030;-62
2023/08/08 10:58:00;;;;;;;23.85;15.50;;;;;;;;;;5040330;28;20033;-62
2023/08/08 11:00:31;;;;;;;25.63;16.50;;;;;;;;;;5038432;28;20116;-63
2023/08/08 11:02:58;;;;;;;24.75;16.67;;;;;;;;;;5039655;28;20087;-62
2023/08/08 11:05:26;;;;;;;27.13;17.83;;;;;;;;;;5038367;28;20612;-63
2023/08/08 11:07:53;;;;;;;24.95;15.77;;;;;;;;;;5039239;28;20482;-63
2023/08/08 11:10:19;;;;;;;27.50;16.50;;;;;;;;;;5039126;28;20421;-62
2023/08/08 11:12:59;;;;;;;23.25;15.27;;;;;;;;;;5037064;28;20094;-63
2023/08/08 11:15:27;;;;;;;27.98;16.88;;;;;;;;;;5036822;28;20040;-63
2023/08/08 11:17:54;;;;;;;27.92;16.48;;;;;;;;;;5037924;28;20037;-63
2023/08/08 11:20:22;;;;;;;25.92;17.48;;;;;;;;;;5037554;28;20140;-62
2023/08/08 11:22:52;;;;;;;24.52;16.35;;;;;;;;;;5037708;28;20029;-62
2023/08/08 11:25:19;;;;;;;28.27;17.60;;;;;;;;;;5037729;28;20584;-63
2023/08/08 11:27:51;;;;;;;25.42;16.60;;;;;;;;;;5037316;28;20136;-62
2023/08/08 11:30:17;;;;;;;27.90;17.10;;;;;;;;;;5037769;28;20049;-63
2023/08/08 11:32:44;;;;;;;29.13;18.38;;;;;;;;;;5037330;28;20045;-63
2023/08/08 11:35:11;;;;;;;27.15;17.52;;;;;;;;;;5037843;28;20128;-62
2023/08/08 11:37:38;;;;;;;28.48;17.60;;;;;;;;;;5038436;28;20033;-62
2023/08/08 11:40:05;;;;;;;28.92;18.73;;;;;;;;;;5037868;28;20041;-62
2023/08/08 11:42:32;;;;;;;28.90;18.35;;;;;;;;;;5037398;28;20190;-63
2023/08/08 11:44:59;;;;;;;27.13;18.38;;;;;;;;;;5037110;28;20041;-61
2023/08/08 11:47:26;;;;;;;30.00;19.10;;;;;;;;;;5037391;28;20163;-62
2023/08/08 11:49:53;;;;;;;27.02;18.55;;;;;;;;;;5038412;28;21044;-64
2023/08/08 11:52:20;;;;;;;30.85;19.08;;;;;;;;;;5037921;28;20083;-62
2023/08/08 11:54:52;;;;;;;33.33;18.98;;;;;;;;;;5035930;28;20116;-59
2023/08/08 11:57:18;;;;;;;30.92;18.98;;;;;;;;;;5053308;28;20128;-61
2023/08/08 11:59:45;;;;;;;29.58;19.00;;;;;;;;;;5035994;28;22324;-60
2023/08/08 12:02:12;;;;;;;31.77;20.52;;;;;;;;;;5036214;28;20079;-61
2023/08/08 12:04:38;;;;;;;33.70;21.67;;;;;;;;;;5035541;28;20045;-62
2023/08/08 12:07:05;;;;;;;36.05;19.17;;;;;;;;;;5036887;28;20047;-63
2023/08/08 12:09:35;;;;;;;30.77;19.45;;;;;;;;;;5037595;28;20541;-62
2023/08/08 12:12:03;;;;;;;32.72;20.52;;;;;;;;;;5037397;28;20068;-64
2023/08/08 12:14:30;;;;;;;31.30;19.58;;;;;;;;;;5033784;28;20105;-66
2023/08/08 13:49:18;;;;;;;34.47;22.25;;;;;;;;;;5031486;27;20452;-68
2023/08/08 13:51:44;;;;;;;33.22;21.20;;;;;;;;;;5015002;28;20125;-64
2023/08/08 13:54:11;;;;;;;38.40;21.67;;;;;;;;;;5014658;28;20500;-66
2023/08/08 13:56:38;;;;;;;37.95;22.83;;;;;;;;;;5019489;28;20045;-65
2023/08/08 13:59:04;;;;;;;35.05;22.60;;;;;;;;;;5014448;28;20133;-66
2023/08/08 14:01:31;;;;;;;34.78;21.05;;;;;;;;;;5013284;28;21753;-68
2023/08/08 14:03:57;;;;;;;34.50;22.17;;;;;;;;;;5013167;28;20104;-65
2023/08/08 14:06:24;;;;;;;37.17;22.13;;;;;;;;;;5012908;28;20049;-65
2023/08/08 14:08:52;;;;;;;35.38;21.80;;;;;;;;;;5013563;28;20095;-63
2023/08/08 14:11:18;;;;;;;30.13;21.13;;;;;;;;;;5013774;28;20030;-65
2023/08/08 14:13:45;;;;;;;33.08;21.17;;;;;;;;;;5013312;28;20560;-65
2023/08/08 14:16:12;;;;;;;31.63;21.02;;;;;;;;;;5014275;28;20042;-66
2023/08/08 14:18:39;;;;;;;31.05;20.38;;;;;;;;;;5013224;28;20049;-66
2023/08/08 14:21:05;;;;;;;32.55;20.83;;;;;;;;;;5013947;28;20177;-65
2023/08/08 14:23:32;;;;;;;32.40;21.40;;;;;;;;;;5013866;28;20048;-66
2023/08/08 14:25:58;;;;;;;30.88;20.40;;;;;;;;;;5029863;28;20029;-66
2023/08/08 14:28:25;;;;;;;29.83;20.60;;;;;;;;;;5014256;28;20054;-66
2023/08/08 14:30:52;;;;;;;28.48;19.40;;;;;;;;;;5013877;28;20037;-65
2023/08/08 14:33:18;;;;;;;36.78;20.05;;;;;;;;;;5013839;28;20132;-65
2023/08/08 14:35:45;;;;;;;31.48;19.52;;;;;;;;;;5027729;28;20041;-66
2023/08/08 14:38:12;;;;;;;27.67;18.58;;;;;;;;;;5014257;28;20045;-66
2023/08/08 14:40:38;;;;;;;25.98;17.00;;;;;;;;;;5013537;28;20421;-66
2023/08/08 14:43:09;;;;;;;26.40;16.40;;;;;;;;;;5013284;28;20123;-66
2023/08/08 14:45:40;;;;;;;25.08;16.42;;;;;;;;;;5011842;28;20056;-65
2023/08/08 14:48:07;;;;;;;27.55;17.20;;;;;;;;;;5013717;28;20172;-65
2023/08/08 14:50:34;;;;;;;25.90;15.90;;;;;;;;;;5013199;28;20045;-65
2023/08/08 14:53:00;;;;;;;27.83;17.40;;;;;;;;;;5012970;28;20041;-65
2023/08/08 14:55:27;;;;;;;26.38;16.98;;;;;;;;;;5014290;28;20037;-65
2023/08/08 14:57:54;;;;;;;26.38;16.27;;;;;;;;;;5013728;28;20036;-65
2023/08/08 15:00:20;;;;;;;24.10;16.08;;;;;;;;;;5001584;28;20124;-65
2023/08/08 15:02:47;;;;;;;26.58;16.73;;;;;;;;;;4998919;28;20038;-64
2023/08/08 15:05:13;;;;;;;24.27;15.70;;;;;;;;;;4999708;28;20064;-65
2023/08/08 15:07:40;;;;;;;24.33;16.08;;;;;;;;;;4997783;28;20927;-65
2023/08/08 15:10:07;;;;;;;27.98;16.77;;;;;;;;;;4999668;28;20596;-65
2023/08/08 15:12:34;;;;;;;22.70;14.88;;;;;;;;;;4998729;28;20057;-65
2023/08/08 15:15:03;;;;;;;24.50;15.25;;;;;;;;;;4998308;28;20117;-64
2023/08/08 15:17:29;;;;;;;25.13;15.05;;;;;;;;;;4998451;28;20084;-65
2023/08/08 15:19:56;;;;;;;21.52;14.20;;;;;;;;;;4999057;28;20042;-65
2023/08/08 15:22:23;;;;;;;25.38;14.63;;;;;;;;;;5012883;28;20038;-65
2023/08/08 15:24:49;;;;;;;25.15;14.38;;;;;;;;;;4998849;28;20042;-64
2023/08/08 15:27:16;;;;;;;23.20;14.65;;;;;;;;;;4999342;28;20050;-63
2023/08/08 15:29:43;;;;;;;21.15;13.70;;;;;;;;;;4999189;28;20091;-64
2023/08/08 15:32:10;;;;;;;20.92;12.43;;;;;;;;;;5013036;28;20029;-64
2023/08/08 15:34:37;;;;;;;21.25;13.38;;;;;;;;;;4999159;28;20056;-64
2023/08/08 15:37:03;;;;;;;19.48;12.63;;;;;;;;;;5000198;28;20099;-64
2023/08/08 15:39:30;;;;;;;24.77;14.13;;;;;;;;;;5000912;28;20648;-65
2023/08/08 15:41:56;;;;;;;19.08;12.75;;;;;;;;;;5001324;28;20092;-64
2023/08/08 15:44:23;;;;;;;19.08;12.40;;;;;;;;;;4999779;28;20574;-65
2023/08/08 15:46:50;;;;;;;19.20;12.23;;;;;;;;;;5000206;28;20060;-65
2023/08/08 15:49:16;;;;;;;18.85;11.80;;;;;;;;;;5000271;28;20591;-65
2023/08/08 15:51:43;;;;;;;20.17;12.02;;;;;;;;;;4998763;28;20037;-64
2023/08/08 15:54:10;;;;;;;18.60;12.13;;;;;;;;;;4998864;28;20096;-65